Terminal Aerodrome Forecast
Issued by NWS

Home | Current Version | Previous Version | Graphics & Text | Print | Product List | Glossary On
Versions: 1 2 3 4 5 6 7 8 9 10 11 12 13 14 15 16 17 18 19
000
FTUS43 KBIS 241400 AAA
TAFMOT
TAF AMD
KMOT 241444Z 2415/2512 06007KT 3SM -FZRA BR SCT007 OVC025
     FM241600 03009KT 3SM -RA BR SCT008 BKN025 OVC035
     FM242000 28011KT 2SM -RASN BR BKN008 OVC012
     FM242200 31022G30KT 3/4SM -SN BR OVC015=

USA.gov is the U.S. government's official web portal to all federal, state and local government web resources and services.